createdAt,value
2022-12-18T00:01:17.483Z,41.15
2022-12-18T00:03:44.892Z,43.40
2022-12-18T00:06:12.672Z,41.90
2022-12-18T00:08:39.518Z,40.60
2022-12-18T00:11:07.664Z,40.95
2022-12-18T00:13:35.274Z,42.63
2022-12-18T00:16:07.263Z,40.97
2022-12-18T00:18:33.773Z,42.65
2022-12-18T00:21:02.118Z,43.63
2022-12-18T00:23:29.544Z,43.30
2022-12-18T00:25:59.516Z,40.00
2022-12-18T00:28:26.010Z,43.15
2022-12-18T00:30:59.803Z,42.53
2022-12-18T00:33:26.317Z,41.00
2022-12-18T00:35:52.745Z,42.03
2022-12-18T00:38:19.318Z,41.10
2022-12-18T00:40:45.801Z,38.28
2022-12-18T00:43:12.239Z,39.53
2022-12-18T00:45:39.288Z,43.53
2022-12-18T00:48:05.949Z,44.05
2022-12-18T00:50:32.381Z,47.67
2022-12-18T00:52:58.818Z,50.55
2022-12-18T00:55:25.265Z,53.13
2022-12-18T00:57:53.283Z,43.28
2022-12-18T01:00:19.962Z,46.38
2022-12-18T01:02:46.494Z,45.70
2022-12-18T01:05:14.394Z,42.97
2022-12-18T01:07:41.101Z,44.17
2022-12-18T01:10:10.239Z,42.28
2022-12-18T01:12:36.694Z,43.05
2022-12-18T01:15:03.911Z,44.80
2022-12-18T01:17:30.368Z,41.05
2022-12-18T01:19:56.842Z,44.65
2022-12-18T01:22:23.350Z,42.25
2022-12-18T01:24:49.865Z,44.72
2022-12-18T01:27:16.583Z,40.22
2022-12-18T01:29:43.435Z,42.83
2022-12-18T01:32:10.504Z,41.38
2022-12-18T01:34:37.947Z,41.85
2022-12-18T01:37:05.411Z,40.97
2022-12-18T01:39:32.875Z,43.38
2022-12-18T01:42:19.549Z,40.78
2022-12-18T01:45:13.458Z,39.47
2022-12-18T01:47:42.942Z,38.22
2022-12-18T01:50:25.828Z,39.60
2022-12-18T01:53:06.441Z,41.80
2022-12-18T01:55:40.769Z,42.55
2022-12-18T01:58:07.334Z,39.10
2022-12-18T02:00:34.870Z,39.75
2022-12-18T02:03:01.829Z,39.45
2022-12-18T02:05:34.126Z,39.85
2022-12-18T02:08:23.662Z,43.15
2022-12-18T02:10:56.187Z,41.08
2022-12-18T02:13:45.786Z,37.63
2022-12-18T02:16:19.752Z,39.08
2022-12-18T02:18:52.185Z,38.75
2022-12-18T02:21:36.780Z,38.95
2022-12-18T02:24:51.138Z,28.75
2022-12-18T02:27:18.564Z,38.55
2022-12-18T02:29:52.915Z,39.35
2022-12-18T02:32:40.430Z,39.33
2022-12-18T02:35:11.661Z,42.38
2022-12-18T02:37:41.034Z,42.35
2022-12-18T02:40:09.403Z,37.22
2022-12-18T02:42:35.932Z,38.25
2022-12-18T02:45:02.380Z,39.45
2022-12-18T02:47:33.744Z,38.97
2022-12-18T02:50:14.980Z,38.08
2022-12-18T02:53:03.325Z,37.28
2022-12-18T02:55:38.774Z,39.70
2022-12-18T02:58:16.489Z,38.92
2022-12-18T03:00:55.844Z,39.55
2022-12-18T03:03:27.887Z,38.55
2022-12-18T03:06:00.996Z,38.83
2022-12-18T03:08:30.989Z,39.50
2022-12-18T03:11:10.133Z,38.55
2022-12-18T03:13:50.051Z,41.03
2022-12-18T03:16:23.300Z,36.80
2022-12-18T03:18:58.907Z,36.10
2022-12-18T03:21:38.346Z,35.70
2022-12-18T03:24:08.566Z,38.30
2022-12-18T03:26:41.113Z,37.03
2022-12-18T03:29:14.051Z,44.78
2022-12-18T03:31:46.634Z,40.50
2022-12-18T03:34:25.258Z,38.58
2022-12-18T03:36:51.704Z,40.22
2022-12-18T03:39:18.218Z,39.38
2022-12-18T03:41:52.078Z,37.38
2022-12-18T03:44:47.850Z,38.83
2022-12-18T03:47:42.297Z,38.50
2022-12-18T03:50:21.695Z,37.00
2022-12-18T03:53:03.802Z,36.60
2022-12-18T03:55:34.929Z,34.45
2022-12-18T03:58:04.431Z,37.15
2022-12-18T04:00:32.576Z,33.28
2022-12-18T04:03:02.768Z,36.70
2022-12-18T04:05:30.736Z,35.97
2022-12-18T04:07:58.124Z,34.92
2022-12-18T04:10:24.728Z,36.60
2022-12-18T04:12:51.209Z,34.17
2022-12-18T04:15:17.905Z,36.75
2022-12-18T04:17:49.591Z,36.03
2022-12-18T04:20:16.755Z,32.88
2022-12-18T04:22:44.029Z,37.58
2022-12-18T04:25:13.922Z,34.42
2022-12-18T04:27:40.381Z,35.20
2022-12-18T04:30:07.567Z,35.55
2022-12-18T04:32:35.180Z,36.55
2022-12-18T04:35:01.698Z,33.80
2022-12-18T04:37:28.092Z,36.33
2022-12-18T04:39:54.594Z,36.60
2022-12-18T04:42:21.141Z,35.28
2022-12-18T04:44:47.643Z,36.90
2022-12-18T04:47:14.173Z,36.72
2022-12-18T04:49:40.672Z,35.30
2022-12-18T04:52:10.496Z,37.38
2022-12-18T04:54:36.957Z,34.15
2022-12-18T04:57:03.388Z,34.45
2022-12-18T04:59:30.109Z,35.92
2022-12-18T05:01:56.693Z,37.67
2022-12-18T05:04:23.348Z,36.00
2022-12-18T05:06:49.764Z,34.70
2022-12-18T05:09:16.201Z,35.03
2022-12-18T05:11:43.078Z,37.08
2022-12-18T05:14:09.519Z,37.22
2022-12-18T05:16:35.980Z,35.97
2022-12-18T05:19:02.469Z,35.72
2022-12-18T05:21:28.887Z,34.83
2022-12-18T05:23:55.359Z,36.13
2022-12-18T05:26:21.791Z,35.20
2022-12-18T05:28:48.222Z,32.88
2022-12-18T05:31:15.034Z,34.80
2022-12-18T05:33:42.157Z,36.92
2022-12-18T05:36:10.149Z,36.05
2022-12-18T05:38:39.207Z,35.75
2022-12-18T05:41:06.306Z,32.15
2022-12-18T05:43:35.352Z,33.38
2022-12-18T05:46:12.376Z,33.10
2022-12-18T05:48:38.878Z,33.25
2022-12-18T05:51:08.039Z,32.47
2022-12-18T05:53:34.723Z,33.38
2022-12-18T05:56:03.822Z,35.83
2022-12-18T05:58:30.874Z,32.58
2022-12-18T06:00:57.706Z,34.08
2022-12-18T06:03:29.288Z,33.35
2022-12-18T06:05:58.701Z,31.58
2022-12-18T06:08:25.151Z,33.15
2022-12-18T06:10:56.052Z,32.60
2022-12-18T06:13:22.690Z,32.55
2022-12-18T06:15:49.170Z,29.92
2022-12-18T06:18:15.710Z,29.90
2022-12-18T06:20:42.417Z,29.08
2022-12-18T06:23:09.517Z,30.02
2022-12-18T06:25:39.412Z,30.05
2022-12-18T06:28:06.212Z,29.15
2022-12-18T06:30:32.695Z,28.65
2022-12-18T06:32:59.169Z,28.38
2022-12-18T06:35:25.653Z,29.75
2022-12-18T06:37:52.100Z,27.88
2022-12-18T06:40:19.037Z,29.13
2022-12-18T06:42:45.597Z,29.55
2022-12-18T06:45:12.510Z,29.55
2022-12-18T06:47:39.064Z,29.65
2022-12-18T06:50:06.515Z,28.67
2022-12-18T06:52:33.819Z,28.33
2022-12-18T06:55:00.967Z,29.10
2022-12-18T06:57:27.417Z,27.23
2022-12-18T06:59:53.857Z,28.70
2022-12-18T07:02:20.415Z,28.40
2022-12-18T07:04:47.326Z,28.67
2022-12-18T07:07:13.747Z,28.70
2022-12-18T07:09:40.186Z,31.17
2022-12-18T07:12:07.759Z,25.67
2022-12-18T07:14:34.550Z,28.27
2022-12-18T07:17:01.256Z,27.17
2022-12-18T07:19:28.027Z,27.98
2022-12-18T07:21:55.640Z,28.70
2022-12-18T07:24:22.116Z,29.77
2022-12-18T07:26:48.866Z,28.55
2022-12-18T07:29:15.359Z,28.90
2022-12-18T07:31:41.956Z,30.30
2022-12-18T07:34:13.501Z,26.95
2022-12-18T07:36:40.289Z,27.60
2022-12-18T07:39:07.078Z,29.27
2022-12-18T07:41:33.886Z,29.35
2022-12-18T07:44:00.341Z,26.55
2022-12-18T07:46:26.752Z,31.05
2022-12-18T07:48:53.217Z,28.45
2022-12-18T07:51:19.897Z,27.38
2022-12-18T07:53:46.888Z,27.17
2022-12-18T07:56:26.525Z,28.73
2022-12-18T07:58:54.637Z,26.90
2022-12-18T08:01:21.341Z,27.52
2022-12-18T08:03:48.198Z,27.05
2022-12-18T08:06:15.065Z,28.75
2022-12-18T08:08:43.165Z,28.25
2022-12-18T08:11:09.680Z,28.10
2022-12-18T08:13:36.326Z,28.58
2022-12-18T08:16:06.370Z,29.17
2022-12-18T08:18:37.969Z,27.50
2022-12-18T08:21:15.946Z,28.20
2022-12-18T08:23:43.599Z,28.38
2022-12-18T08:26:12.304Z,27.30
2022-12-18T08:28:38.841Z,27.63
2022-12-18T08:31:05.661Z,29.75
2022-12-18T08:33:33.377Z,27.13
2022-12-18T08:36:01.209Z,28.15
2022-12-18T08:38:27.747Z,27.40
2022-12-18T08:41:01.758Z,26.73
2022-12-18T08:43:46.839Z,26.92
2022-12-18T08:46:16.403Z,26.73
2022-12-18T08:48:42.887Z,26.15
2022-12-18T08:51:10.605Z,25.48
2022-12-18T08:53:38.687Z,27.48
2022-12-18T08:56:06.373Z,26.13
2022-12-18T08:58:32.835Z,26.67
2022-12-18T09:01:07.305Z,24.40
2022-12-18T09:03:34.011Z,27.30
2022-12-18T09:06:00.641Z,25.92
2022-12-18T09:08:27.712Z,28.15
2022-12-18T09:10:54.183Z,26.48
2022-12-18T09:13:21.302Z,26.88
2022-12-18T09:15:57.197Z,26.90
2022-12-18T09:18:24.766Z,25.90
2022-12-18T09:20:53.318Z,26.25
2022-12-18T09:23:20.480Z,25.92
2022-12-18T09:25:47.020Z,26.50
2022-12-18T09:28:16.313Z,25.77
2022-12-18T09:30:48.458Z,25.35
2022-12-18T09:33:15.243Z,26.40
2022-12-18T09:35:43.866Z,26.10
2022-12-18T09:38:19.019Z,25.55
2022-12-18T09:40:49.484Z,28.38
2022-12-18T09:43:28.193Z,27.42
2022-12-18T09:46:07.327Z,27.38
2022-12-18T09:48:39.110Z,23.98
2022-12-18T09:51:19.533Z,24.00
2022-12-18T09:53:52.822Z,25.90
2022-12-18T09:56:23.656Z,24.55
2022-12-18T09:59:01.031Z,24.02
2022-12-18T10:01:38.952Z,32.45
2022-12-18T10:04:10.631Z,45.22
2022-12-18T10:06:47.733Z,35.17
2022-12-18T10:09:34.850Z,23.85
2022-12-18T10:12:23.170Z,23.17
2022-12-18T10:15:12.114Z,22.50
2022-12-18T10:17:41.204Z,24.35
2022-12-18T10:20:40.682Z,22.25
2022-12-18T10:23:15.812Z,21.73
2022-12-18T10:25:42.216Z,20.38
2022-12-18T10:28:13.707Z,17.23
2022-12-18T10:30:41.502Z,17.92
2022-12-18T10:33:19.723Z,17.77
2022-12-18T10:35:48.023Z,16.33
2022-12-18T10:38:17.551Z,16.35
2022-12-18T10:40:51.740Z,15.95
2022-12-18T10:43:26.141Z,18.33
2022-12-18T10:46:18.353Z,16.63
2022-12-18T10:48:47.712Z,15.88
2022-12-18T10:51:34.548Z,16.30
2022-12-18T10:54:02.329Z,15.88
2022-12-18T10:56:32.206Z,17.70
2022-12-18T10:59:07.492Z,16.58
2022-12-18T11:02:24.040Z,15.45
2022-12-18T11:07:18.219Z,17.27
2022-12-18T11:09:44.656Z,16.95
2022-12-18T11:12:11.392Z,16.45
2022-12-18T11:14:48.110Z,15.85
2022-12-18T11:17:28.328Z,16.10
2022-12-18T11:20:10.646Z,16.33
2022-12-18T11:22:39.127Z,14.18
2022-12-18T11:25:35.366Z,15.02
2022-12-18T11:28:25.942Z,13.85
2022-12-18T11:31:16.932Z,15.60
2022-12-18T11:34:05.153Z,14.05
2022-12-18T11:36:39.690Z,15.02
2022-12-18T11:39:50.736Z,14.98
2022-12-18T11:42:25.186Z,13.90
2022-12-18T11:45:28.890Z,10.65
2022-12-18T11:48:01.871Z,15.20
2022-12-18T11:50:37.877Z,13.80
2022-12-18T11:53:06.225Z,14.63
2022-12-18T11:56:07.016Z,15.07
2022-12-18T11:58:51.670Z,13.88
2022-12-18T12:01:46.932Z,15.60
2022-12-18T12:04:25.273Z,15.43
2022-12-18T12:07:10.774Z,15.65
2022-12-18T12:09:45.720Z,14.68
2022-12-18T12:12:49.118Z,15.43
2022-12-18T12:15:36.804Z,14.35
2022-12-18T12:18:33.397Z,14.15
2022-12-18T12:21:02.953Z,15.80
2022-12-18T12:24:00.714Z,14.25
2022-12-18T12:26:46.342Z,12.80
2022-12-18T12:31:57.073Z,14.27
2022-12-18T12:34:43.131Z,14.13
2022-12-18T12:37:33.725Z,14.40
2022-12-18T12:40:15.384Z,14.18
2022-12-18T12:43:15.061Z,14.38
2022-12-18T12:46:02.227Z,14.70
2022-12-18T12:48:44.616Z,16.70
2022-12-18T12:51:29.026Z,15.40
2022-12-18T12:53:58.268Z,15.85
2022-12-18T12:56:31.846Z,15.20
2022-12-18T12:59:13.337Z,15.00
2022-12-18T13:01:49.709Z,15.65
2022-12-18T13:04:33.747Z,14.57
2022-12-18T13:07:28.698Z,14.40
2022-12-18T13:10:15.468Z,14.23
2022-12-18T13:12:56.733Z,14.85
2022-12-18T13:15:26.320Z,13.63
2022-12-18T13:18:11.019Z,17.15
2022-12-18T13:20:40.906Z,14.88
2022-12-18T13:23:26.064Z,14.32
2022-12-18T13:25:53.124Z,14.00
2022-12-18T13:28:26.954Z,15.38
2022-12-18T13:30:58.409Z,14.80
2022-12-18T13:34:16.605Z,14.73
2022-12-18T13:36:35.296Z,13.73
2022-12-18T13:42:38.090Z,15.55
2022-12-18T13:45:42.764Z,15.57
2022-12-18T13:48:21.848Z,16.27
2022-12-18T13:50:53.396Z,17.60
2022-12-18T13:53:28.778Z,18.02
2022-12-18T13:55:56.043Z,16.83
2022-12-18T13:58:23.356Z,17.20
2022-12-18T14:00:49.955Z,16.13
2022-12-18T14:03:24.215Z,16.58
2022-12-18T14:05:57.834Z,18.58
2022-12-18T14:08:27.622Z,16.30
2022-12-18T14:10:54.300Z,16.08
2022-12-18T14:13:24.512Z,14.65
2022-12-18T14:15:52.141Z,16.48
2022-12-18T14:18:28.935Z,16.75
2022-12-18T14:21:01.355Z,16.15
2022-12-18T14:23:38.900Z,15.75
2022-12-18T14:26:30.378Z,17.30
2022-12-18T14:28:58.277Z,16.65
2022-12-18T14:31:27.380Z,16.35
2022-12-18T14:33:54.757Z,15.85
2022-12-18T14:36:26.814Z,16.30
2022-12-18T14:38:58.636Z,17.48
2022-12-18T14:41:26.834Z,15.82
2022-12-18T14:43:55.210Z,18.15
2022-12-18T14:46:34.006Z,16.55
2022-12-18T14:49:04.462Z,17.92
2022-12-18T14:51:34.036Z,18.40
2022-12-18T14:54:04.737Z,17.55
2022-12-18T14:56:37.384Z,17.33
2022-12-18T14:59:06.805Z,16.77
2022-12-18T15:01:35.459Z,17.05
2022-12-18T15:04:03.033Z,20.05
2022-12-18T15:06:41.035Z,19.52
2022-12-18T15:09:24.459Z,23.73
2022-12-18T15:11:57.555Z,27.15
2022-12-18T15:14:42.800Z,21.65
2022-12-18T15:17:20.164Z,19.88
2022-12-18T15:19:48.227Z,21.58
2022-12-18T15:22:26.089Z,24.83
2022-12-18T15:24:52.979Z,20.88
2022-12-18T15:27:38.689Z,23.50
2022-12-18T15:30:11.209Z,19.25
2022-12-18T15:32:38.955Z,21.38
2022-12-18T15:35:11.912Z,21.25
2022-12-18T15:37:41.795Z,21.17
2022-12-18T15:40:14.284Z,21.17
2022-12-18T15:42:59.313Z,18.10
2022-12-18T15:45:25.783Z,16.90
2022-12-18T15:47:52.323Z,23.65
2022-12-18T15:50:18.936Z,15.18
2022-12-18T15:52:48.311Z,15.63
2022-12-18T15:55:39.100Z,14.65
2022-12-18T15:58:09.050Z,14.82
2022-12-18T16:00:37.502Z,14.88
2022-12-18T16:03:05.494Z,13.18
2022-12-18T16:05:33.116Z,14.52
2022-12-18T16:08:00.783Z,12.93
2022-12-18T16:10:27.392Z,13.20
2022-12-18T16:12:53.874Z,13.63
2022-12-18T16:15:24.563Z,12.68
2022-12-18T16:17:52.575Z,13.80
2022-12-18T16:20:21.999Z,13.73
2022-12-18T16:22:50.340Z,7.93
2022-12-18T16:25:22.702Z,11.98
2022-12-18T16:27:49.602Z,13.80
2022-12-18T16:30:22.508Z,11.95
2022-12-18T16:32:51.061Z,15.00
2022-12-18T16:35:17.997Z,6.50
2022-12-18T16:37:44.792Z,6.25
2022-12-18T16:40:14.427Z,13.75
2022-12-18T16:42:42.786Z,13.00
2022-12-18T16:45:11.601Z,13.88
2022-12-18T16:47:38.871Z,14.38
2022-12-18T16:50:06.165Z,14.13
2022-12-18T16:52:32.747Z,14.25
2022-12-18T16:54:59.361Z,14.57
2022-12-18T16:57:26.054Z,12.52
2022-12-18T16:59:53.135Z,13.32
2022-12-18T17:02:23.515Z,14.25
2022-12-18T17:04:50.814Z,14.68
2022-12-18T17:07:17.287Z,13.45
2022-12-18T17:09:43.759Z,14.50
2022-12-18T17:12:10.615Z,12.07
2022-12-18T17:14:37.387Z,13.48
2022-12-18T17:17:21.448Z,17.02
2022-12-18T17:19:48.669Z,13.57
2022-12-18T17:22:15.192Z,14.43
2022-12-18T17:24:41.679Z,13.43
2022-12-18T17:27:08.882Z,11.38
2022-12-18T17:29:35.479Z,12.63
2022-12-18T17:32:01.971Z,15.80
2022-12-18T17:34:30.504Z,7.20
2022-12-18T17:36:57.682Z,14.93
2022-12-18T17:39:24.190Z,14.85
2022-12-18T17:41:50.839Z,15.00
2022-12-18T17:44:17.868Z,15.68
2022-12-18T17:46:46.342Z,16.45
2022-12-18T17:49:14.015Z,14.98
2022-12-18T17:51:42.789Z,13.65
2022-12-18T17:54:09.835Z,16.92
2022-12-18T17:56:36.459Z,16.20
2022-12-18T17:59:03.060Z,15.55
2022-12-18T18:01:29.730Z,13.02
2022-12-18T18:03:56.437Z,15.82
2022-12-18T18:06:24.263Z,16.35
2022-12-18T18:08:51.073Z,17.13
2022-12-18T18:11:39.153Z,16.42
2022-12-18T18:14:11.352Z,26.50
2022-12-18T18:16:41.439Z,16.05
2022-12-18T18:19:10.942Z,15.13
2022-12-18T18:21:43.207Z,16.83
2022-12-18T18:24:12.709Z,16.67
2022-12-18T18:26:41.429Z,7.53
2022-12-18T18:29:12.081Z,16.67
2022-12-18T18:31:41.157Z,9.20
2022-12-18T18:34:14.948Z,9.50
2022-12-18T18:36:42.031Z,6.50
2022-12-18T18:39:09.082Z,16.50
2022-12-18T18:41:36.911Z,8.02
2022-12-18T18:44:03.665Z,15.07
2022-12-18T18:46:30.486Z,11.60
2022-12-18T18:48:57.017Z,10.45
2022-12-18T18:51:23.951Z,14.60
2022-12-18T18:53:52.275Z,13.23
2022-12-18T18:59:08.814Z,7.30
2022-12-18T19:01:35.390Z,7.43
2022-12-18T19:04:04.685Z,8.25
2022-12-18T19:06:31.584Z,8.93
2022-12-18T19:09:02.221Z,12.05
2022-12-18T19:11:48.583Z,14.65
2022-12-18T19:14:16.147Z,6.45
2022-12-18T19:16:45.440Z,17.38
2022-12-18T19:19:13.064Z,5.97
2022-12-18T19:21:39.772Z,8.77
2022-12-18T19:24:06.598Z,15.27
2022-12-18T19:26:33.082Z,9.65
2022-12-18T19:29:07.905Z,17.85
2022-12-18T19:31:36.515Z,16.35
2022-12-18T19:34:06.555Z,17.60
2022-12-18T19:36:33.982Z,19.30
2022-12-18T19:39:08.158Z,15.23
2022-12-18T19:41:34.841Z,19.95
2022-12-18T19:44:01.626Z,18.95
2022-12-18T19:46:34.260Z,19.08
2022-12-18T19:49:00.812Z,19.88
2022-12-18T19:51:29.146Z,9.60
2022-12-18T19:53:59.270Z,9.20
2022-12-18T19:56:29.885Z,9.93
2022-12-18T19:58:56.797Z,18.00
2022-12-18T20:01:25.247Z,8.93
2022-12-18T20:03:55.492Z,18.70
2022-12-18T20:06:29.109Z,13.80
2022-12-18T20:09:00.289Z,9.18
2022-12-18T20:11:31.560Z,16.80
2022-12-18T20:14:01.595Z,20.13
2022-12-18T20:16:28.399Z,20.42
2022-12-18T20:18:56.468Z,15.60
2022-12-18T20:21:23.672Z,18.08
2022-12-18T20:23:50.139Z,19.13
2022-12-18T20:26:16.666Z,19.27
2022-12-18T20:28:43.090Z,19.08
2022-12-18T20:31:10.569Z,4.20
2022-12-18T20:33:40.455Z,12.05
2022-12-18T20:36:12.426Z,15.75
2022-12-18T20:38:39.560Z,19.92
2022-12-18T20:41:12.241Z,14.90
2022-12-18T20:43:39.752Z,14.35
2022-12-18T20:46:08.834Z,18.10
2022-12-18T20:48:35.874Z,16.42
2022-12-18T20:51:05.724Z,19.10
2022-12-18T20:53:35.885Z,15.00
2022-12-18T20:56:12.353Z,18.00
2022-12-18T20:58:39.012Z,3.95
2022-12-18T21:01:16.276Z,11.45
2022-12-18T21:03:44.275Z,18.15
2022-12-18T21:06:10.863Z,18.75
2022-12-18T21:08:37.874Z,16.42
2022-12-18T21:11:34.727Z,19.48
2022-12-18T21:14:03.421Z,15.02
2022-12-18T21:16:30.129Z,10.85
2022-12-18T21:18:56.708Z,7.65
2022-12-18T21:21:26.988Z,15.52
2022-12-18T21:23:54.241Z,7.18
2022-12-18T21:26:23.184Z,19.25
2022-12-18T21:28:55.441Z,18.70
2022-12-18T21:31:24.025Z,20.20
2022-12-18T21:33:51.924Z,17.90
2022-12-18T21:36:20.442Z,19.48
2022-12-18T21:38:46.924Z,19.35
2022-12-18T21:41:36.289Z,21.60
2022-12-18T21:44:05.647Z,19.63
2022-12-18T21:46:37.424Z,20.67
2022-12-18T21:49:05.302Z,15.32
2022-12-18T21:51:32.433Z,23.08
2022-12-18T21:53:59.718Z,21.00
2022-12-18T21:56:48.471Z,12.40
2022-12-18T21:59:21.253Z,20.33
2022-12-18T22:01:48.713Z,21.45
2022-12-18T22:04:16.627Z,20.35
2022-12-18T22:06:43.342Z,19.65
2022-12-18T22:09:12.170Z,23.92
2022-12-18T22:11:39.034Z,17.80
2022-12-18T22:14:05.616Z,22.63
2022-12-18T22:16:32.104Z,20.45
2022-12-18T22:18:58.674Z,19.65
2022-12-18T22:21:30.957Z,19.77
2022-12-18T22:24:29.256Z,19.75
2022-12-18T22:27:02.151Z,21.70
2022-12-18T22:29:47.844Z,19.23
2022-12-18T22:32:30.582Z,20.02
2022-12-18T22:35:07.206Z,8.18
2022-12-18T22:37:35.891Z,19.17
2022-12-18T22:40:05.032Z,19.38
2022-12-18T22:42:32.618Z,15.45
2022-12-18T22:45:00.302Z,17.42
2022-12-18T22:47:30.021Z,21.88
2022-12-18T22:49:57.503Z,18.35
2022-12-18T22:52:25.074Z,8.93
2022-12-18T22:54:53.623Z,21.13
2022-12-18T22:57:21.642Z,10.85
2022-12-18T22:59:48.246Z,18.52
2022-12-18T23:02:14.856Z,16.38
2022-12-18T23:04:41.407Z,12.32
2022-12-18T23:07:07.832Z,21.58
2022-12-18T23:09:34.789Z,14.25
2022-12-18T23:12:01.619Z,17.23
2022-12-18T23:14:29.520Z,19.45
2022-12-18T23:16:56.432Z,16.95
2022-12-18T23:19:23.818Z,20.40
2022-12-18T23:21:50.747Z,20.25
2022-12-18T23:24:17.381Z,23.27
2022-12-18T23:26:43.847Z,12.35
2022-12-18T23:29:10.361Z,26.98
2022-12-18T23:31:38.922Z,6.80
2022-12-18T23:34:06.850Z,16.50
2022-12-18T23:36:34.598Z,13.90
2022-12-18T23:39:12.847Z,18.65
2022-12-18T23:41:50.856Z,8.85
2022-12-18T23:44:17.342Z,19.02
2022-12-18T23:46:43.843Z,22.38
2022-12-18T23:49:10.365Z,20.48
2022-12-18T23:51:39.496Z,20.60
2022-12-18T23:54:06.058Z,21.02
2022-12-18T23:56:35.621Z,20.75
2022-12-18T23:59:02.160Z,11.80
